createdAt,value
2018-06-29T00:02:20.420Z,65.77
2018-06-29T00:05:23.180Z,66.42
2018-06-29T00:08:25.394Z,66.81
2018-06-29T00:11:27.471Z,67.03
2018-06-29T00:14:29.966Z,66.95
2018-06-29T00:17:32.964Z,66.64
2018-06-29T00:20:35.544Z,66.62
2018-06-29T00:23:39.019Z,66.46
2018-06-29T00:26:41.426Z,66.81
2018-06-29T00:29:43.576Z,66.84
2018-06-29T00:32:45.924Z,67.35
2018-06-29T00:35:48.109Z,67.01
2018-06-29T00:38:50.222Z,67.56
2018-06-29T00:41:52.188Z,67.53
2018-06-29T00:44:54.636Z,67.54
2018-06-29T00:47:57.181Z,67.75
2018-06-29T00:50:59.612Z,67.45
2018-06-29T00:54:02.723Z,66.08
2018-06-29T00:57:05.204Z,66.63
2018-06-29T01:00:08.219Z,66.23
2018-06-29T01:03:10.647Z,66.41
2018-06-29T01:06:12.875Z,66.42
2018-06-29T01:09:15.363Z,66.65
2018-06-29T01:12:17.348Z,67.09
2018-06-29T01:15:19.748Z,66.88
2018-06-29T01:18:21.848Z,67.21
2018-06-29T01:21:24.270Z,67.07
2018-06-29T01:24:26.423Z,65.62
2018-06-29T01:27:29.811Z,66.61
2018-06-29T01:30:33.143Z,66.93
2018-06-29T01:33:35.467Z,66.46
2018-06-29T01:37:01.445Z,66.73
2018-06-29T01:40:04.433Z,67.20
2018-06-29T01:43:06.517Z,67.57
2018-06-29T01:46:09.030Z,67.80
2018-06-29T01:49:11.555Z,68.14
2018-06-29T01:52:13.875Z,68.13
2018-06-29T01:55:29.203Z,67.91
2018-06-29T01:58:32.109Z,68.45
2018-06-29T02:01:34.670Z,68.45
2018-06-29T02:04:37.038Z,67.87
2018-06-29T02:07:39.171Z,67.86
2018-06-29T02:10:41.203Z,67.38
2018-06-29T02:13:44.606Z,66.94
2018-06-29T02:16:46.679Z,66.15
2018-06-29T02:19:48.733Z,66.60
2018-06-29T02:22:51.096Z,66.50
2018-06-29T02:25:53.248Z,66.33
2018-06-29T02:28:55.853Z,66.12
2018-06-29T02:31:58.225Z,65.97
2018-06-29T02:35:00.331Z,65.51
2018-06-29T02:38:04.086Z,65.91
2018-06-29T02:41:06.343Z,65.70
2018-06-29T02:44:08.359Z,65.50
2018-06-29T02:47:10.357Z,65.49
2018-06-29T02:50:26.922Z,65.79
2018-06-29T02:53:29.341Z,65.60
2018-06-29T02:56:32.643Z,65.08
2018-06-29T02:59:36.954Z,65.12
2018-06-29T03:02:39.015Z,64.70
2018-06-29T03:05:41.305Z,64.82
2018-06-29T03:08:43.465Z,65.23
2018-06-29T03:11:45.519Z,65.56
2018-06-29T03:14:48.024Z,65.67
2018-06-29T03:17:50.092Z,66.90
2018-06-29T03:20:52.467Z,67.19
2018-06-29T03:23:54.618Z,68.81
2018-06-29T03:26:56.596Z,69.24
2018-06-29T03:29:59.119Z,69.20
2018-06-29T03:33:03.084Z,69.60
2018-06-29T03:36:05.148Z,70.22
2018-06-29T03:39:08.554Z,70.03
2018-06-29T03:42:11.708Z,69.91
2018-06-29T03:45:14.158Z,69.32
2018-06-29T03:48:16.242Z,68.54
2018-06-29T03:51:18.252Z,69.43
2018-06-29T03:54:20.352Z,68.34
2018-06-29T03:57:22.406Z,69.23
2018-06-29T04:00:24.679Z,68.54
2018-06-29T04:03:26.813Z,68.65
2018-06-29T04:06:29.380Z,68.73
2018-06-29T04:09:32.837Z,68.65
2018-06-29T04:12:35.094Z,69.24
2018-06-29T04:15:37.443Z,69.33
2018-06-29T04:18:40.887Z,69.68
2018-06-29T04:21:42.951Z,69.30
2018-06-29T04:24:45.435Z,68.57
2018-06-29T04:27:47.474Z,69.09
2018-06-29T04:30:49.518Z,68.94
2018-06-29T04:33:51.845Z,69.56
2018-06-29T04:36:53.965Z,69.13
2018-06-29T04:39:55.979Z,69.75
2018-06-29T04:42:58.566Z,69.68
2018-06-29T04:46:00.652Z,69.11
2018-06-29T04:49:03.184Z,69.71
2018-06-29T04:52:06.869Z,70.35
2018-06-29T04:55:09.211Z,69.84
2018-06-29T04:58:11.617Z,69.95
2018-06-29T05:01:13.751Z,69.97
2018-06-29T05:04:16.118Z,69.35
2018-06-29T05:07:18.167Z,69.84
2018-06-29T05:10:20.251Z,69.37
2018-06-29T05:13:22.305Z,70.33
2018-06-29T05:16:24.731Z,69.87
2018-06-29T05:19:26.768Z,69.48
2018-06-29T05:22:28.849Z,70.12
2018-06-29T05:25:31.232Z,69.76
2018-06-29T05:28:34.828Z,69.47
2018-06-29T05:31:37.842Z,70.19
2018-06-29T05:34:40.195Z,70.01
2018-06-29T05:37:43.343Z,68.82
2018-06-29T05:40:45.856Z,68.25
2018-06-29T05:43:48.325Z,68.84
2018-06-29T05:47:21.650Z,68.60
2018-06-29T05:50:23.990Z,68.55
2018-06-29T05:53:26.303Z,67.91
2018-06-29T05:56:28.476Z,68.48
2018-06-29T05:59:30.487Z,68.20
2018-06-29T06:02:32.694Z,68.15
2018-06-29T06:05:34.976Z,67.69
2018-06-29T06:08:37.459Z,67.33
2018-06-29T06:11:40.139Z,67.33
2018-06-29T06:14:42.620Z,67.04
2018-06-29T06:17:44.610Z,66.82
2018-06-29T06:20:46.671Z,66.64
2018-06-29T06:23:48.724Z,66.34
2018-06-29T06:26:51.091Z,66.03
2018-06-29T06:29:53.176Z,65.57
2018-06-29T06:32:55.213Z,65.47
2018-06-29T06:35:57.586Z,65.18
2018-06-29T06:38:59.755Z,65.17
2018-06-29T06:42:02.150Z,64.95
2018-06-29T06:45:05.253Z,65.39
2018-06-29T06:48:07.315Z,64.55
2018-06-29T06:51:09.336Z,65.62
2018-06-29T06:54:11.559Z,65.70
2018-06-29T06:57:13.825Z,64.66
2018-06-29T07:00:16.390Z,67.02
2018-06-29T07:03:18.648Z,66.98
2018-06-29T07:06:20.965Z,67.91
2018-06-29T07:09:22.902Z,68.32
2018-06-29T07:12:25.070Z,70.35
2018-06-29T07:15:27.117Z,71.47
2018-06-29T07:18:29.527Z,71.85
2018-06-29T07:21:32.049Z,71.09
2018-06-29T07:24:35.590Z,70.92
2018-06-29T07:27:38.130Z,70.27
2018-06-29T07:30:40.658Z,68.69
2018-06-29T07:33:42.631Z,68.41
2018-06-29T07:36:45.140Z,67.67
2018-06-29T07:39:47.704Z,67.12
2018-06-29T07:42:49.681Z,69.06
2018-06-29T07:45:52.160Z,68.54
2018-06-29T07:48:55.176Z,67.88
2018-06-29T07:51:57.289Z,66.72
2018-06-29T07:54:59.783Z,65.70
2018-06-29T07:58:02.187Z,65.21
2018-06-29T08:01:05.866Z,64.81
2018-06-29T08:04:08.297Z,63.97
2018-06-29T08:07:11.240Z,63.58
2018-06-29T08:10:13.719Z,62.16
2018-06-29T08:13:15.876Z,63.57
2018-06-29T08:16:18.290Z,62.22
2018-06-29T08:19:20.373Z,61.07
2018-06-29T08:22:22.426Z,59.80
2018-06-29T08:25:24.917Z,60.09
2018-06-29T08:28:27.246Z,60.53
2018-06-29T08:31:29.883Z,60.67
2018-06-29T08:34:32.110Z,59.18
2018-06-29T08:37:36.295Z,59.19
2018-06-29T08:40:38.560Z,58.75
2018-06-29T08:43:41.046Z,59.53
2018-06-29T08:46:43.168Z,58.81
2018-06-29T08:49:45.570Z,58.33
2018-06-29T08:52:48.052Z,57.35
2018-06-29T08:55:50.100Z,56.66
2018-06-29T08:58:52.806Z,55.72
2018-06-29T09:01:55.165Z,55.96
2018-06-29T09:04:57.630Z,55.12
2018-06-29T09:08:00.187Z,54.58
2018-06-29T09:11:02.319Z,54.98
2018-06-29T09:14:05.604Z,55.67
2018-06-29T09:17:08.571Z,53.26
2018-06-29T09:20:10.747Z,53.56
2018-06-29T09:23:13.321Z,53.89
2018-06-29T09:26:15.823Z,51.82
2018-06-29T09:29:18.362Z,51.71
2018-06-29T09:32:20.852Z,52.10
2018-06-29T09:35:24.387Z,51.60
2018-06-29T09:38:26.879Z,51.00
2018-06-29T09:41:29.388Z,50.69
2018-06-29T09:44:31.961Z,51.49
2018-06-29T09:47:35.851Z,50.39
2018-06-29T09:50:38.384Z,49.32
2018-06-29T09:53:40.457Z,47.29
2018-06-29T09:56:42.958Z,47.56
2018-06-29T09:59:45.426Z,47.83
2018-06-29T10:02:49.036Z,47.02
2018-06-29T10:05:51.600Z,46.66
2018-06-29T10:08:54.070Z,46.15
2018-06-29T10:11:56.057Z,47.37
2018-06-29T10:14:59.931Z,46.88
2018-06-29T10:18:02.128Z,46.46
2018-06-29T10:21:04.464Z,45.67
2018-06-29T10:24:06.567Z,44.65
2018-06-29T10:27:08.620Z,44.04
2018-06-29T10:30:10.555Z,43.80
2018-06-29T10:33:12.715Z,44.66
2018-06-29T10:36:14.811Z,44.00
2018-06-29T10:39:17.923Z,44.66
2018-06-29T10:42:19.996Z,44.20
2018-06-29T10:45:22.085Z,44.70
2018-06-29T10:48:24.367Z,44.25
2018-06-29T10:51:26.416Z,43.15
2018-06-29T10:54:28.502Z,42.75
2018-06-29T10:57:30.573Z,42.07
2018-06-29T11:00:34.200Z,43.16
2018-06-29T11:03:36.672Z,42.67
2018-06-29T11:06:38.827Z,42.27
2018-06-29T11:09:40.923Z,41.35
2018-06-29T11:12:43.064Z,41.45
2018-06-29T11:15:45.219Z,40.90
2018-06-29T11:18:47.307Z,40.30
2018-06-29T11:21:53.146Z,39.57
2018-06-29T11:24:55.345Z,38.71
2018-06-29T11:27:57.515Z,38.26
2018-06-29T11:31:00.085Z,39.68
2018-06-29T11:34:02.357Z,40.94
2018-06-29T11:37:04.903Z,40.09
2018-06-29T11:40:08.183Z,40.34
2018-06-29T11:43:10.304Z,39.84
2018-06-29T11:46:12.443Z,39.45
2018-06-29T11:52:16.290Z,38.93
2018-06-29T11:55:18.499Z,40.08
2018-06-29T11:58:20.582Z,40.25
2018-06-29T12:01:22.782Z,40.33
2018-06-29T12:04:25.005Z,40.29
2018-06-29T12:07:26.963Z,40.66
2018-06-29T12:10:29.148Z,39.77
2018-06-29T12:13:31.237Z,39.40
2018-06-29T12:16:34.358Z,39.32
2018-06-29T12:19:36.371Z,38.38
2018-06-29T12:22:38.438Z,37.48
2018-06-29T12:25:40.480Z,37.63
2018-06-29T12:28:42.594Z,37.99
2018-06-29T12:31:44.700Z,37.26
2018-06-29T12:34:47.089Z,36.36
2018-06-29T12:37:49.185Z,36.78
2018-06-29T12:40:51.263Z,36.81
2018-06-29T12:43:53.408Z,36.85
2018-06-29T12:46:55.589Z,37.17
2018-06-29T12:49:57.657Z,36.38
2018-06-29T12:53:00.668Z,36.64
2018-06-29T12:56:02.851Z,36.58
2018-06-29T12:59:06.021Z,36.96
2018-06-29T13:02:09.112Z,36.68
2018-06-29T13:05:11.222Z,35.60
2018-06-29T13:08:13.319Z,34.86
2018-06-29T13:11:15.508Z,34.49
2018-06-29T13:14:18.124Z,34.80
2018-06-29T13:17:20.169Z,33.71
2018-06-29T13:20:23.277Z,33.77
2018-06-29T13:23:26.556Z,35.22
2018-06-29T13:26:28.642Z,35.35
2018-06-29T13:29:31.734Z,36.22
2018-06-29T13:32:33.927Z,34.73
2018-06-29T13:35:35.980Z,35.48
2018-06-29T13:38:38.076Z,35.42
2018-06-29T13:41:40.122Z,34.95
2018-06-29T13:44:42.173Z,35.16
2018-06-29T13:47:46.304Z,34.29
2018-06-29T13:50:48.276Z,34.11
2018-06-29T13:53:50.520Z,33.64
2018-06-29T13:56:52.613Z,33.49
2018-06-29T13:59:54.677Z,32.93
2018-06-29T14:02:56.736Z,32.27
2018-06-29T14:05:58.815Z,31.87
2018-06-29T14:09:01.945Z,31.83
2018-06-29T14:12:04.154Z,32.07
2018-06-29T14:15:07.111Z,31.94
2018-06-29T14:18:09.335Z,31.29
2018-06-29T14:21:11.332Z,31.21
2018-06-29T14:24:17.840Z,31.44
2018-06-29T14:27:20.227Z,31.15
2018-06-29T14:30:22.304Z,31.32
2018-06-29T14:33:24.540Z,31.52
2018-06-29T14:36:26.475Z,31.66
2018-06-29T14:39:28.511Z,32.98
2018-06-29T14:42:32.901Z,33.44
2018-06-29T14:45:36.079Z,33.87
2018-06-29T14:48:38.043Z,33.92
2018-06-29T14:51:40.146Z,34.37
2018-06-29T14:54:42.214Z,34.46
2018-06-29T14:57:44.341Z,34.35
2018-06-29T15:00:46.401Z,34.52
2018-06-29T15:03:48.584Z,35.21
2018-06-29T15:06:50.552Z,34.95
2018-06-29T15:09:53.622Z,34.84
2018-06-29T15:12:55.700Z,34.68
2018-06-29T15:15:57.856Z,33.45
2018-06-29T15:18:59.947Z,33.86
2018-06-29T15:22:03.416Z,34.03
2018-06-29T15:25:05.567Z,33.80
2018-06-29T15:28:07.673Z,33.26
2018-06-29T15:31:09.655Z,33.48
2018-06-29T15:34:11.730Z,33.62
2018-06-29T15:37:13.893Z,33.70
2018-06-29T15:40:15.895Z,33.35
2018-06-29T15:43:18.063Z,32.33
2018-06-29T15:46:20.079Z,32.36
2018-06-29T15:49:22.145Z,32.65
2018-06-29T15:52:24.194Z,33.20
2018-06-29T15:55:26.349Z,34.17
2018-06-29T15:58:29.651Z,33.96
2018-06-29T16:01:32.703Z,33.90
2018-06-29T16:04:34.740Z,34.40
2018-06-29T16:07:36.814Z,34.14
2018-06-29T16:10:38.808Z,33.87
2018-06-29T16:13:40.964Z,34.34
2018-06-29T16:16:43.118Z,33.38
2018-06-29T16:19:45.220Z,33.04
2018-06-29T16:22:47.256Z,32.80
2018-06-29T16:25:49.362Z,33.02
2018-06-29T16:28:51.397Z,33.07
2018-06-29T16:31:59.316Z,33.75
2018-06-29T16:35:02.511Z,33.70
2018-06-29T16:38:06.827Z,33.10
2018-06-29T16:41:08.994Z,33.17
2018-06-29T16:44:11.061Z,32.91
2018-06-29T16:47:13.155Z,32.23
2018-06-29T16:50:15.208Z,32.19
2018-06-29T16:53:17.570Z,32.75
2018-06-29T16:56:19.919Z,33.24
2018-06-29T16:59:22.021Z,33.64
2018-06-29T17:02:24.142Z,34.22
2018-06-29T17:05:26.311Z,34.42
2018-06-29T17:08:28.320Z,34.24
2018-06-29T17:11:30.499Z,34.77
2018-06-29T17:14:33.211Z,34.73
2018-06-29T17:17:35.704Z,34.15
2018-06-29T17:20:37.727Z,34.43
2018-06-29T17:23:39.957Z,34.28
2018-06-29T17:26:42.247Z,34.51
2018-06-29T17:29:44.374Z,33.60
2018-06-29T17:32:46.463Z,33.98
2018-06-29T17:35:48.668Z,34.17
2018-06-29T17:38:50.891Z,34.47
2018-06-29T17:41:53.979Z,34.25
2018-06-29T17:44:56.064Z,33.96
2018-06-29T17:47:58.400Z,33.49
2018-06-29T17:51:00.487Z,33.94
2018-06-29T17:54:02.912Z,33.79
2018-06-29T17:57:05.121Z,34.09
2018-06-29T18:00:07.269Z,34.12
2018-06-29T18:03:09.348Z,34.37
2018-06-29T18:06:11.589Z,34.72
2018-06-29T18:09:13.667Z,35.03
2018-06-29T18:12:15.632Z,35.02
2018-06-29T18:15:17.799Z,35.31
2018-06-29T18:18:19.869Z,35.23
2018-06-29T18:21:23.107Z,35.89
2018-06-29T18:24:25.563Z,35.73
2018-06-29T18:27:27.668Z,36.50
2018-06-29T18:30:30.779Z,35.89
2018-06-29T18:33:32.845Z,36.59
2018-06-29T18:36:34.962Z,36.50
2018-06-29T18:39:40.957Z,35.98
2018-06-29T18:42:43.234Z,36.89
2018-06-29T18:45:45.341Z,36.48
2018-06-29T18:48:49.111Z,36.59
2018-06-29T18:51:52.396Z,36.94
2018-06-29T18:54:54.523Z,36.96
2018-06-29T18:57:56.622Z,37.90
2018-06-29T19:00:58.699Z,37.81
2018-06-29T19:04:01.253Z,37.63
2018-06-29T19:07:03.431Z,38.33
2018-06-29T19:10:05.527Z,37.96
2018-06-29T19:13:07.623Z,37.91
2018-06-29T19:16:10.735Z,38.66
2018-06-29T19:19:12.872Z,38.68
2018-06-29T19:22:14.832Z,38.90
2018-06-29T19:25:16.976Z,39.78
2018-06-29T19:28:19.125Z,40.28
2018-06-29T19:31:21.955Z,40.43
2018-06-29T19:34:23.879Z,41.38
2018-06-29T19:37:25.883Z,41.73
2018-06-29T19:40:27.944Z,42.01
2018-06-29T19:43:30.039Z,43.13
2018-06-29T19:46:32.089Z,43.25
2018-06-29T19:49:34.185Z,43.57
2018-06-29T19:52:36.161Z,44.53
2018-06-29T19:55:39.039Z,45.05
2018-06-29T19:58:41.376Z,45.61
2018-06-29T20:01:43.478Z,46.00
2018-06-29T20:04:45.506Z,46.49
2018-06-29T20:07:47.518Z,46.75
2018-06-29T20:10:49.606Z,47.28
2018-06-29T20:13:51.664Z,47.42
2018-06-29T20:16:53.662Z,47.69
2018-06-29T20:19:55.720Z,47.80
2018-06-29T20:22:57.923Z,47.89
2018-06-29T20:26:00.160Z,48.18
2018-06-29T20:29:02.136Z,48.36
2018-06-29T20:32:04.353Z,48.84
2018-06-29T20:35:06.689Z,48.85
2018-06-29T20:38:08.750Z,49.37
2018-06-29T20:41:10.928Z,49.70
2018-06-29T20:44:12.966Z,49.91
2018-06-29T20:47:15.027Z,50.43
2018-06-29T20:50:18.270Z,50.75
2018-06-29T20:53:20.392Z,50.54
2018-06-29T20:56:22.560Z,51.06
2018-06-29T20:59:24.660Z,51.28
2018-06-29T21:02:26.744Z,51.01
2018-06-29T21:05:28.882Z,51.66
2018-06-29T21:08:30.980Z,51.95
2018-06-29T21:11:33.040Z,52.42
2018-06-29T21:14:35.017Z,51.69
2018-06-29T21:17:37.141Z,52.54
2018-06-29T21:20:39.652Z,53.51
2018-06-29T21:23:42.128Z,53.90
2018-06-29T21:26:44.195Z,54.18
2018-06-29T21:29:47.947Z,53.82
2018-06-29T21:32:49.962Z,53.21
2018-06-29T21:35:51.926Z,53.69
2018-06-29T21:38:53.979Z,54.30
2018-06-29T21:41:56.067Z,53.96
2018-06-29T21:44:58.169Z,53.94
2018-06-29T21:48:00.107Z,53.31
2018-06-29T21:51:02.207Z,54.51
2018-06-29T21:54:04.267Z,54.85
2018-06-29T21:57:06.344Z,55.10
2018-06-29T22:00:10.124Z,54.87
2018-06-29T22:03:12.860Z,55.86
2018-06-29T22:06:14.809Z,55.45
2018-06-29T22:09:17.495Z,55.76
2018-06-29T22:12:19.668Z,56.47
2018-06-29T22:15:24.048Z,55.85
2018-06-29T22:18:26.040Z,56.69
2018-06-29T22:21:33.345Z,56.66
2018-06-29T22:24:35.405Z,55.79
2018-06-29T22:27:37.485Z,55.40
2018-06-29T22:30:39.524Z,55.74
2018-06-29T22:33:41.640Z,55.43
2018-06-29T22:36:45.728Z,55.84
2018-06-29T22:39:48.327Z,55.89
2018-06-29T22:42:50.399Z,55.74
2018-06-29T22:45:52.563Z,56.42
2018-06-29T22:48:54.760Z,56.69
2018-06-29T22:51:57.832Z,57.50
2018-06-29T22:54:59.915Z,58.14
2018-06-29T22:58:01.985Z,58.61
2018-06-29T23:01:04.095Z,59.15
2018-06-29T23:04:06.211Z,59.56
2018-06-29T23:07:08.357Z,59.84
2018-06-29T23:10:10.372Z,60.09
2018-06-29T23:13:12.468Z,60.37
2018-06-29T23:16:14.517Z,60.71
2018-06-29T23:19:17.076Z,60.60
2018-06-29T23:22:19.149Z,60.68
2018-06-29T23:25:42.196Z,60.94
2018-06-29T23:28:44.297Z,60.89
2018-06-29T23:31:46.423Z,60.44
2018-06-29T23:34:48.490Z,59.44
2018-06-29T23:37:50.546Z,60.57
2018-06-29T23:40:52.840Z,61.00
2018-06-29T23:43:54.939Z,61.43
2018-06-29T23:46:58.045Z,61.13
2018-06-29T23:50:00.012Z,61.85
2018-06-29T23:53:03.164Z,62.38
2018-06-29T23:56:05.288Z,61.63
2018-06-29T23:59:07.478Z,61.40
